sensor_id;sensor_type;location;lat;lon;timestamp;pressure;altitude;pressure_sealevel;temperature;humidity
11349;BME280;5729;43.570;27.826;2023-04-27T00:01:16;98607.06;;;9.30;100.00
11349;BME280;5729;43.570;27.826;2023-04-27T00:03:42;98608.81;;;9.19;100.00
11349;BME280;5729;43.570;27.826;2023-04-27T00:06:10;98610.34;;;9.20;100.00
11349;BME280;5729;43.570;27.826;2023-04-27T00:08:36;98604.88;;;9.13;100.00
11349;BME280;5729;43.570;27.826;2023-04-27T00:11:02;98617.22;;;9.17;100.00
11349;BME280;5729;43.570;27.826;2023-04-27T00:13:27;98606.44;;;9.14;100.00
11349;BME280;5729;43.570;27.826;2023-04-27T00:15:53;98615.72;;;9.20;100.00
11349;BME280;5729;43.570;27.826;2023-04-27T00:18:19;98603.16;;;9.04;100.00
11349;BME280;5729;43.570;27.826;2023-04-27T00:20:44;98610.72;;;9.18;100.00
11349;BME280;5729;43.570;27.826;2023-04-27T00:23:10;98609.75;;;9.07;100.00
11349;BME280;5729;43.570;27.826;2023-04-27T00:25:35;98619.38;;;9.08;100.00
11349;BME280;5729;43.570;27.826;2023-04-27T00:28:01;98611.00;;;8.90;100.00
11349;BME280;5729;43.570;27.826;2023-04-27T00:30:27;98627.81;;;8.87;100.00
11349;BME280;5729;43.570;27.826;2023-04-27T00:32:52;98621.59;;;8.83;100.00
11349;BME280;5729;43.570;27.826;2023-04-27T00:35:18;98617.31;;;8.79;100.00
11349;BME280;5729;43.570;27.826;2023-04-27T00:37:43;98618.13;;;8.83;100.00
11349;BME280;5729;43.570;27.826;2023-04-27T00:40:09;98626.75;;;8.72;100.00
11349;BME280;5729;43.570;27.826;2023-04-27T00:42:35;98620.56;;;8.68;100.00
11349;BME280;5729;43.570;27.826;2023-04-27T00:45:00;98620.84;;;8.63;100.00
11349;BME280;5729;43.570;27.826;2023-04-27T00:47:26;98623.00;;;8.58;100.00
11349;BME280;5729;43.570;27.826;2023-04-27T00:49:52;98626.22;;;8.63;100.00
11349;BME280;5729;43.570;27.826;2023-04-27T00:52:18;98633.19;;;8.49;100.00
11349;BME280;5729;43.570;27.826;2023-04-27T00:54:44;98638.38;;;8.57;100.00
11349;BME280;5729;43.570;27.826;2023-04-27T00:57:09;98635.19;;;8.52;100.00
11349;BME280;5729;43.570;27.826;2023-04-27T00:59:35;98642.88;;;8.53;100.00
11349;BME280;5729;43.570;27.826;2023-04-27T01:02:00;98645.78;;;8.45;100.00
11349;BME280;5729;43.570;27.826;2023-04-27T01:04:27;98646.19;;;8.47;100.00
11349;BME280;5729;43.570;27.826;2023-04-27T01:06:53;98645.84;;;8.48;100.00
11349;BME280;5729;43.570;27.826;2023-04-27T01:09:19;98657.13;;;8.38;100.00
11349;BME280;5729;43.570;27.826;2023-04-27T01:11:47;98657.16;;;8.22;100.00
11349;BME280;5729;43.570;27.826;2023-04-27T01:14:13;98657.44;;;8.17;100.00
11349;BME280;5729;43.570;27.826;2023-04-27T01:16:38;98669.94;;;8.10;100.00
11349;BME280;5729;43.570;27.826;2023-04-27T01:19:06;98670.38;;;7.96;100.00
11349;BME280;5729;43.570;27.826;2023-04-27T01:21:31;98667.00;;;7.99;100.00
11349;BME280;5729;43.570;27.826;2023-04-27T01:23:57;98663.44;;;7.95;100.00
11349;BME280;5729;43.570;27.826;2023-04-27T01:26:22;98673.16;;;7.99;100.00
11349;BME280;5729;43.570;27.826;2023-04-27T01:28:48;98679.38;;;7.88;100.00
11349;BME280;5729;43.570;27.826;2023-04-27T01:31:13;98678.44;;;7.80;100.00
11349;BME280;5729;43.570;27.826;2023-04-27T01:33:40;98672.72;;;7.82;100.00
11349;BME280;5729;43.570;27.826;2023-04-27T01:36:06;98676.19;;;7.82;100.00
11349;BME280;5729;43.570;27.826;2023-04-27T01:38:32;98671.09;;;7.77;100.00
11349;BME280;5729;43.570;27.826;2023-04-27T01:40:58;98675.94;;;7.72;100.00
11349;BME280;5729;43.570;27.826;2023-04-27T01:43:28;98675.25;;;7.75;100.00
11349;BME280;5729;43.570;27.826;2023-04-27T01:45:53;98668.50;;;7.65;100.00
11349;BME280;5729;43.570;27.826;2023-04-27T01:48:19;98664.06;;;7.73;100.00
11349;BME280;5729;43.570;27.826;2023-04-27T01:50:44;98680.84;;;7.85;100.00
11349;BME280;5729;43.570;27.826;2023-04-27T01:53:10;98678.53;;;7.84;100.00
11349;BME280;5729;43.570;27.826;2023-04-27T01:55:35;98679.97;;;7.97;100.00
11349;BME280;5729;43.570;27.826;2023-04-27T01:58:01;98685.78;;;7.99;100.00
11349;BME280;5729;43.570;27.826;2023-04-27T02:00:26;98694.34;;;8.05;100.00
11349;BME280;5729;43.570;27.826;2023-04-27T02:02:52;98675.84;;;7.99;100.00
11349;BME280;5729;43.570;27.826;2023-04-27T02:05:18;98689.66;;;8.17;100.00
11349;BME280;5729;43.570;27.826;2023-04-27T02:07:44;98694.81;;;8.26;100.00
11349;BME280;5729;43.570;27.826;2023-04-27T02:10:09;98687.03;;;8.21;100.00
11349;BME280;5729;43.570;27.826;2023-04-27T02:12:35;98689.19;;;8.31;100.00
11349;BME280;5729;43.570;27.826;2023-04-27T02:15:00;98683.28;;;8.41;100.00
11349;BME280;5729;43.570;27.826;2023-04-27T02:17:27;98691.63;;;8.36;100.00
11349;BME280;5729;43.570;27.826;2023-04-27T02:19:53;98693.69;;;8.43;100.00
11349;BME280;5729;43.570;27.826;2023-04-27T02:22:19;98695.94;;;8.41;100.00
11349;BME280;5729;43.570;27.826;2023-04-27T02:24:45;98699.56;;;8.48;100.00
11349;BME280;5729;43.570;27.826;2023-04-27T02:27:10;98699.94;;;8.31;100.00
11349;BME280;5729;43.570;27.826;2023-04-27T02:29:36;98691.22;;;8.34;100.00
11349;BME280;5729;43.570;27.826;2023-04-27T02:32:05;98690.91;;;8.39;100.00
11349;BME280;5729;43.570;27.826;2023-04-27T02:34:30;98696.38;;;8.43;100.00
11349;BME280;5729;43.570;27.826;2023-04-27T02:36:55;98691.16;;;8.50;100.00
11349;BME280;5729;43.570;27.826;2023-04-27T02:39:21;98686.91;;;8.49;100.00
11349;BME280;5729;43.570;27.826;2023-04-27T02:41:46;98688.41;;;8.46;100.00
11349;BME280;5729;43.570;27.826;2023-04-27T02:44:12;98690.38;;;8.49;100.00
11349;BME280;5729;43.570;27.826;2023-04-27T02:46:37;98694.03;;;8.41;100.00
11349;BME280;5729;43.570;27.826;2023-04-27T02:49:03;98709.09;;;8.30;100.00
11349;BME280;5729;43.570;27.826;2023-04-27T02:51:28;98700.63;;;8.28;100.00
11349;BME280;5729;43.570;27.826;2023-04-27T02:53:53;98703.22;;;8.24;100.00
11349;BME280;5729;43.570;27.826;2023-04-27T02:56:19;98700.91;;;8.23;100.00
11349;BME280;5729;43.570;27.826;2023-04-27T02:58:45;98707.06;;;8.23;100.00
11349;BME280;5729;43.570;27.826;2023-04-27T03:01:13;98707.47;;;8.25;100.00
11349;BME280;5729;43.570;27.826;2023-04-27T03:03:38;98717.78;;;8.23;100.00
11349;BME280;5729;43.570;27.826;2023-04-27T03:06:04;98736.31;;;8.13;100.00
11349;BME280;5729;43.570;27.826;2023-04-27T03:08:29;98728.63;;;8.11;100.00
11349;BME280;5729;43.570;27.826;2023-04-27T03:10:55;98737.28;;;8.05;100.00
11349;BME280;5729;43.570;27.826;2023-04-27T03:13:21;98757.25;;;7.91;100.00
11349;BME280;5729;43.570;27.826;2023-04-27T03:15:46;98748.53;;;7.94;100.00
11349;BME280;5729;43.570;27.826;2023-04-27T03:18:12;98750.72;;;7.89;100.00
11349;BME280;5729;43.570;27.826;2023-04-27T03:20:37;98756.22;;;7.80;100.00
11349;BME280;5729;43.570;27.826;2023-04-27T03:23:03;98759.34;;;7.82;100.00
11349;BME280;5729;43.570;27.826;2023-04-27T03:25:28;98759.59;;;7.93;100.00
11349;BME280;5729;43.570;27.826;2023-04-27T03:27:54;98760.66;;;7.88;100.00
11349;BME280;5729;43.570;27.826;2023-04-27T03:30:20;98757.19;;;7.88;100.00
11349;BME280;5729;43.570;27.826;2023-04-27T03:32:45;98753.28;;;7.85;100.00
11349;BME280;5729;43.570;27.826;2023-04-27T03:35:10;98760.81;;;7.95;100.00
11349;BME280;5729;43.570;27.826;2023-04-27T03:37:36;98753.22;;;7.97;100.00
11349;BME280;5729;43.570;27.826;2023-04-27T03:40:01;98760.56;;;7.85;100.00
11349;BME280;5729;43.570;27.826;2023-04-27T03:42:31;98763.25;;;8.00;100.00
11349;BME280;5729;43.570;27.826;2023-04-27T03:44:56;98767.66;;;7.93;100.00
11349;BME280;5729;43.570;27.826;2023-04-27T03:47:22;98768.78;;;7.92;100.00
11349;BME280;5729;43.570;27.826;2023-04-27T03:49:47;98765.56;;;8.02;100.00
11349;BME280;5729;43.570;27.826;2023-04-27T03:52:12;98751.38;;;8.01;100.00
11349;BME280;5729;43.570;27.826;2023-04-27T03:54:38;98763.50;;;7.80;100.00
11349;BME280;5729;43.570;27.826;2023-04-27T03:57:03;98760.06;;;7.95;100.00
11349;BME280;5729;43.570;27.826;2023-04-27T03:59:29;98766.81;;;7.89;100.00
11349;BME280;5729;43.570;27.826;2023-04-27T04:01:54;98769.75;;;7.99;100.00
11349;BME280;5729;43.570;27.826;2023-04-27T04:04:21;98770.34;;;7.93;100.00
11349;BME280;5729;43.570;27.826;2023-04-27T04:06:47;98766.53;;;7.78;100.00
11349;BME280;5729;43.570;27.826;2023-04-27T04:09:12;98773.88;;;7.81;100.00
11349;BME280;5729;43.570;27.826;2023-04-27T04:11:38;98767.03;;;7.68;100.00
11349;BME280;5729;43.570;27.826;2023-04-27T04:14:03;98769.47;;;7.73;100.00
11349;BME280;5729;43.570;27.826;2023-04-27T04:16:29;98765.94;;;7.85;100.00
11349;BME280;5729;43.570;27.826;2023-04-27T04:18:54;98768.84;;;7.80;100.00
11349;BME280;5729;43.570;27.826;2023-04-27T04:21:20;98773.91;;;7.97;100.00
11349;BME280;5729;43.570;27.826;2023-04-27T04:23:46;98769.50;;;7.89;100.00
11349;BME280;5729;43.570;27.826;2023-04-27T04:26:11;98767.94;;;7.88;100.00
11349;BME280;5729;43.570;27.826;2023-04-27T04:28:39;98772.06;;;7.85;100.00
11349;BME280;5729;43.570;27.826;2023-04-27T04:31:04;98766.94;;;7.80;100.00
11349;BME280;5729;43.570;27.826;2023-04-27T04:33:30;98772.53;;;7.87;100.00
11349;BME280;5729;43.570;27.826;2023-04-27T04:35:56;98768.00;;;7.91;100.00
11349;BME280;5729;43.570;27.826;2023-04-27T04:38:22;98777.38;;;7.97;100.00
11349;BME280;5729;43.570;27.826;2023-04-27T04:40:48;98775.97;;;8.03;100.00
11349;BME280;5729;43.570;27.826;2023-04-27T04:43:14;98772.50;;;8.03;100.00
11349;BME280;5729;43.570;27.826;2023-04-27T04:45:40;98769.91;;;8.07;100.00
11349;BME280;5729;43.570;27.826;2023-04-27T04:48:06;98790.69;;;8.10;100.00
11349;BME280;5729;43.570;27.826;2023-04-27T04:50:32;98781.69;;;8.18;100.00
11349;BME280;5729;43.570;27.826;2023-04-27T04:52:58;98771.28;;;8.16;100.00
11349;BME280;5729;43.570;27.826;2023-04-27T04:55:25;98792.69;;;8.13;100.00
11349;BME280;5729;43.570;27.826;2023-04-27T04:57:52;98781.09;;;8.09;100.00
11349;BME280;5729;43.570;27.826;2023-04-27T05:00:17;98785.31;;;7.94;100.00
11349;BME280;5729;43.570;27.826;2023-04-27T05:02:43;98788.81;;;8.10;100.00
11349;BME280;5729;43.570;27.826;2023-04-27T05:05:08;98789.75;;;8.18;100.00
11349;BME280;5729;43.570;27.826;2023-04-27T05:07:34;98789.31;;;8.16;100.00
11349;BME280;5729;43.570;27.826;2023-04-27T05:10:00;98783.41;;;8.26;100.00
11349;BME280;5729;43.570;27.826;2023-04-27T05:12:25;98787.50;;;8.35;100.00
11349;BME280;5729;43.570;27.826;2023-04-27T05:14:51;98778.13;;;8.29;100.00
11349;BME280;5729;43.570;27.826;2023-04-27T05:17:17;98782.66;;;8.41;100.00
11349;BME280;5729;43.570;27.826;2023-04-27T05:19:42;98781.44;;;8.38;100.00
11349;BME280;5729;43.570;27.826;2023-04-27T05:22:08;98795.97;;;8.53;100.00
11349;BME280;5729;43.570;27.826;2023-04-27T05:24:33;98793.06;;;8.43;100.00
11349;BME280;5729;43.570;27.826;2023-04-27T05:26:58;98790.19;;;8.51;100.00
11349;BME280;5729;43.570;27.826;2023-04-27T05:29:24;98788.06;;;8.60;100.00
11349;BME280;5729;43.570;27.826;2023-04-27T05:31:50;98785.28;;;8.72;100.00
11349;BME280;5729;43.570;27.826;2023-04-27T05:34:15;98783.69;;;8.87;100.00
11349;BME280;5729;43.570;27.826;2023-04-27T05:36:41;98779.28;;;8.79;100.00
11349;BME280;5729;43.570;27.826;2023-04-27T05:39:06;98791.06;;;8.90;100.00
11349;BME280;5729;43.570;27.826;2023-04-27T05:41:32;98781.78;;;8.88;100.00
11349;BME280;5729;43.570;27.826;2023-04-27T05:43:57;98792.44;;;8.84;100.00
11349;BME280;5729;43.570;27.826;2023-04-27T05:46:23;98794.16;;;8.92;100.00
11349;BME280;5729;43.570;27.826;2023-04-27T05:48:49;98807.06;;;9.02;100.00
11349;BME280;5729;43.570;27.826;2023-04-27T05:51:15;98791.94;;;9.14;100.00
11349;BME280;5729;43.570;27.826;2023-04-27T05:53:40;98793.19;;;9.20;100.00
11349;BME280;5729;43.570;27.826;2023-04-27T05:56:06;98804.59;;;9.32;100.00
11349;BME280;5729;43.570;27.826;2023-04-27T05:58:32;98807.56;;;9.46;100.00
11349;BME280;5729;43.570;27.826;2023-04-27T06:00:59;98804.41;;;9.64;100.00
11349;BME280;5729;43.570;27.826;2023-04-27T06:03:25;98796.03;;;9.88;100.00
11349;BME280;5729;43.570;27.826;2023-04-27T06:05:57;98806.00;;;10.10;100.00
11349;BME280;5729;43.570;27.826;2023-04-27T06:08:23;98787.38;;;10.21;100.00
11349;BME280;5729;43.570;27.826;2023-04-27T06:10:52;98806.03;;;10.33;100.00
11349;BME280;5729;43.570;27.826;2023-04-27T06:13:18;98796.06;;;10.60;100.00
11349;BME280;5729;43.570;27.826;2023-04-27T06:15:43;98792.94;;;10.58;100.00
11349;BME280;5729;43.570;27.826;2023-04-27T06:18:09;98810.06;;;10.69;100.00
11349;BME280;5729;43.570;27.826;2023-04-27T06:20:35;98789.56;;;10.65;100.00
11349;BME280;5729;43.570;27.826;2023-04-27T06:23:01;98807.28;;;10.66;100.00
11349;BME280;5729;43.570;27.826;2023-04-27T06:25:26;98805.59;;;10.54;100.00
11349;BME280;5729;43.570;27.826;2023-04-27T08:43:52;98848.84;;;20.92;39.50
11349;BME280;5729;43.570;27.826;2023-04-27T08:46:22;98844.97;;;21.76;36.91
11349;BME280;5729;43.570;27.826;2023-04-27T08:48:53;98842.63;;;20.59;37.57
11349;BME280;5729;43.570;27.826;2023-04-27T08:51:20;98843.44;;;21.05;37.51
11349;BME280;5729;43.570;27.826;2023-04-27T08:53:51;98853.13;;;20.93;37.57
11349;BME280;5729;43.570;27.826;2023-04-27T08:56:18;98847.44;;;21.00;37.11
11349;BME280;5729;43.570;27.826;2023-04-27T08:58:43;98859.28;;;20.16;37.52
11349;BME280;5729;43.570;27.826;2023-04-27T09:01:09;98849.00;;;19.28;39.40
11349;BME280;5729;43.570;27.826;2023-04-27T09:03:35;98838.31;;;18.47;40.87
11349;BME280;5729;43.570;27.826;2023-04-27T09:06:02;98836.41;;;18.44;41.45
11349;BME280;5729;43.570;27.826;2023-04-27T09:08:28;98846.38;;;18.04;42.74
11349;BME280;5729;43.570;27.826;2023-04-27T09:11:05;98840.75;;;18.15;42.84
11349;BME280;5729;43.570;27.826;2023-04-27T09:13:36;98851.41;;;18.83;42.60
11349;BME280;5729;43.570;27.826;2023-04-27T09:16:02;98849.53;;;19.00;42.01
11349;BME280;5729;43.570;27.826;2023-04-27T09:18:28;98852.00;;;19.14;41.92
11349;BME280;5729;43.570;27.826;2023-04-27T09:20:54;98849.84;;;18.82;42.30
11349;BME280;5729;43.570;27.826;2023-04-27T09:23:30;98855.31;;;18.55;43.66
11349;BME280;5729;43.570;27.826;2023-04-27T09:26:04;98858.19;;;19.18;41.74
11349;BME280;5729;43.570;27.826;2023-04-27T09:28:33;98847.16;;;19.21;42.22
11349;BME280;5729;43.570;27.826;2023-04-27T09:31:00;98855.50;;;18.71;41.91
11349;BME280;5729;43.570;27.826;2023-04-27T09:33:31;98849.16;;;18.51;41.49
11349;BME280;5729;43.570;27.826;2023-04-27T09:35:59;98851.59;;;18.19;42.24
11349;BME280;5729;43.570;27.826;2023-04-27T09:38:25;98847.63;;;17.96;42.32
11349;BME280;5729;43.570;27.826;2023-04-27T09:40:51;98848.69;;;18.56;42.38
11349;BME280;5729;43.570;27.826;2023-04-27T09:43:17;98853.72;;;18.84;41.68
11349;BME280;5729;43.570;27.826;2023-04-27T09:45:43;98856.47;;;19.04;40.14
11349;BME280;5729;43.570;27.826;2023-04-27T09:48:09;98834.47;;;18.18;41.83
11349;BME280;5729;43.570;27.826;2023-04-27T09:50:40;98838.34;;;19.53;40.65
11349;BME280;5729;43.570;27.826;2023-04-27T09:53:09;98835.38;;;19.84;39.17
11349;BME280;5729;43.570;27.826;2023-04-27T10:09:22;98813.25;;;19.94;39.36
11349;BME280;5729;43.570;27.826;2023-04-27T10:11:49;98808.94;;;20.29;38.40
11349;BME280;5729;43.570;27.826;2023-04-27T10:14:17;98808.44;;;20.51;38.35
11349;BME280;5729;43.570;27.826;2023-04-27T10:16:50;98802.56;;;20.81;38.18
11349;BME280;5729;43.570;27.826;2023-04-27T10:19:16;98813.13;;;20.50;37.22
11349;BME280;5729;43.570;27.826;2023-04-27T10:21:54;98828.72;;;20.98;36.75
11349;BME280;5729;43.570;27.826;2023-04-27T10:24:41;98832.66;;;20.97;36.52
11349;BME280;5729;43.570;27.826;2023-04-27T10:27:15;98831.59;;;21.36;36.04
11349;BME280;5729;43.570;27.826;2023-04-27T10:29:45;98809.63;;;21.65;36.05
11349;BME280;5729;43.570;27.826;2023-04-27T10:32:23;98835.19;;;21.62;35.95
11349;BME280;5729;43.570;27.826;2023-04-27T10:34:50;98825.84;;;21.60;35.34
11349;BME280;5729;43.570;27.826;2023-04-27T10:37:17;98826.50;;;20.93;36.54
11349;BME280;5729;43.570;27.826;2023-04-27T10:39:45;98821.31;;;20.18;36.85
11349;BME280;5729;43.570;27.826;2023-04-27T10:42:10;98822.56;;;20.94;37.28
11349;BME280;5729;43.570;27.826;2023-04-27T10:44:37;98838.94;;;21.27;36.58
11349;BME280;5729;43.570;27.826;2023-04-27T10:47:15;98829.63;;;20.47;37.03
11349;BME280;5729;43.570;27.826;2023-04-27T10:49:41;98833.72;;;20.55;37.20
11349;BME280;5729;43.570;27.826;2023-04-27T10:52:07;98844.09;;;20.47;37.45
11349;BME280;5729;43.570;27.826;2023-04-27T10:54:34;98826.06;;;20.95;36.49
11349;BME280;5729;43.570;27.826;2023-04-27T10:57:06;98828.53;;;21.06;35.96
11349;BME280;5729;43.570;27.826;2023-04-27T10:59:33;98811.44;;;22.23;35.43
11349;BME280;5729;43.570;27.826;2023-04-27T11:02:00;98828.38;;;22.68;33.92
11349;BME280;5729;43.570;27.826;2023-04-27T11:04:39;98833.56;;;21.78;34.25
11349;BME280;5729;43.570;27.826;2023-04-27T11:07:09;98833.69;;;22.37;34.50
11349;BME280;5729;43.570;27.826;2023-04-27T11:09:37;98828.63;;;23.17;33.52
11349;BME280;5729;43.570;27.826;2023-04-27T11:12:06;98818.44;;;24.42;32.19
11349;BME280;5729;43.570;27.826;2023-04-27T11:14:33;98826.03;;;24.96;32.82
11349;BME280;5729;43.570;27.826;2023-04-27T11:16:59;98826.56;;;24.45;31.52
11349;BME280;5729;43.570;27.826;2023-04-27T11:19:25;98821.25;;;23.80;32.09
11349;BME280;5729;43.570;27.826;2023-04-27T11:21:50;98823.13;;;23.61;31.85
11349;BME280;5729;43.570;27.826;2023-04-27T11:24:16;98822.09;;;23.99;31.86
11349;BME280;5729;43.570;27.826;2023-04-27T11:26:41;98818.84;;;23.16;32.59
11349;BME280;5729;43.570;27.826;2023-04-27T11:29:08;98815.59;;;22.74;32.96
11349;BME280;5729;43.570;27.826;2023-04-27T11:31:38;98840.63;;;22.29;33.83
11349;BME280;5729;43.570;27.826;2023-04-27T11:34:06;98811.06;;;20.99;35.60
11349;BME280;5729;43.570;27.826;2023-04-27T11:36:31;98821.44;;;20.63;36.76
11349;BME280;5729;43.570;27.826;2023-04-27T11:38:57;98806.84;;;20.82;36.40
11349;BME280;5729;43.570;27.826;2023-04-27T11:41:32;98792.69;;;21.42;36.59
11349;BME280;5729;43.570;27.826;2023-04-27T11:44:03;98815.06;;;21.11;36.27
11349;BME280;5729;43.570;27.826;2023-04-27T11:46:30;98829.22;;;19.80;37.43
11349;BME280;5729;43.570;27.826;2023-04-27T11:49:00;98816.84;;;19.16;38.57
11349;BME280;5729;43.570;27.826;2023-04-27T11:51:28;98826.75;;;18.63;39.25
11349;BME280;5729;43.570;27.826;2023-04-27T11:53:54;98820.31;;;18.27;40.92
11349;BME280;5729;43.570;27.826;2023-04-27T11:56:20;98814.56;;;17.67;42.38
11349;BME280;5729;43.570;27.826;2023-04-27T11:58:45;98815.41;;;17.91;42.83
11349;BME280;5729;43.570;27.826;2023-04-27T12:01:11;98834.09;;;18.43;42.73
11349;BME280;5729;43.570;27.826;2023-04-27T12:03:37;98820.78;;;18.72;41.45
11349;BME280;5729;43.570;27.826;2023-04-27T12:06:02;98824.09;;;19.82;40.32
11349;BME280;5729;43.570;27.826;2023-04-27T12:08:28;98831.94;;;19.20;39.52
11349;BME280;5729;43.570;27.826;2023-04-27T12:10:54;98831.94;;;18.58;41.26
11349;BME280;5729;43.570;27.826;2023-04-27T12:13:20;98815.81;;;17.90;42.39
11349;BME280;5729;43.570;27.826;2023-04-27T12:15:45;98822.03;;;16.92;45.06
11349;BME280;5729;43.570;27.826;2023-04-27T12:18:11;98836.41;;;17.30;46.69
11349;BME280;5729;43.570;27.826;2023-04-27T12:20:36;98828.09;;;18.51;43.11
11349;BME280;5729;43.570;27.826;2023-04-27T12:23:02;98821.38;;;19.42;41.52
11349;BME280;5729;43.570;27.826;2023-04-27T12:25:27;98822.34;;;18.93;40.94
11349;BME280;5729;43.570;27.826;2023-04-27T12:27:53;98832.75;;;18.78;42.16
11349;BME280;5729;43.570;27.826;2023-04-27T12:30:19;98829.66;;;18.02;43.60
11349;BME280;5729;43.570;27.826;2023-04-27T12:32:45;98826.72;;;18.17;45.48
11349;BME280;5729;43.570;27.826;2023-04-27T12:35:11;98830.91;;;19.54;43.63
11349;BME280;5729;43.570;27.826;2023-04-27T12:37:37;98831.13;;;20.96;40.43
11349;BME280;5729;43.570;27.826;2023-04-27T12:40:03;98839.56;;;21.02;38.82
11349;BME280;5729;43.570;27.826;2023-04-27T12:42:33;98835.25;;;19.32;40.72
11349;BME280;5729;43.570;27.826;2023-04-27T12:44:58;98832.78;;;18.51;43.01
11349;BME280;5729;43.570;27.826;2023-04-27T12:47:24;98836.94;;;18.09;44.04
11349;BME280;5729;43.570;27.826;2023-04-27T12:49:49;98843.38;;;17.95;44.96
11349;BME280;5729;43.570;27.826;2023-04-27T12:52:15;98845.34;;;17.64;45.38
11349;BME280;5729;43.570;27.826;2023-04-27T12:54:41;98842.06;;;17.12;46.66
11349;BME280;5729;43.570;27.826;2023-04-27T12:57:06;98850.88;;;16.82;48.56
11349;BME280;5729;43.570;27.826;2023-04-27T12:59:32;98839.00;;;16.65;50.05
11349;BME280;5729;43.570;27.826;2023-04-27T13:01:59;98844.41;;;16.17;50.06
11349;BME280;5729;43.570;27.826;2023-04-27T13:04:25;98847.59;;;16.05;53.00
11349;BME280;5729;43.570;27.826;2023-04-27T13:06:51;98839.06;;;16.58;52.31
11349;BME280;5729;43.570;27.826;2023-04-27T13:09:16;98846.59;;;17.22;49.53
11349;BME280;5729;43.570;27.826;2023-04-27T13:11:41;98840.88;;;17.13;48.86
11349;BME280;5729;43.570;27.826;2023-04-27T13:14:07;98842.84;;;17.09;49.08
11349;BME280;5729;43.570;27.826;2023-04-27T13:16:34;98841.81;;;16.96;51.81
11349;BME280;5729;43.570;27.826;2023-04-27T13:18:59;98837.22;;;17.91;49.81
11349;BME280;5729;43.570;27.826;2023-04-27T13:21:25;98841.31;;;18.30;46.05
11349;BME280;5729;43.570;27.826;2023-04-27T13:23:51;98842.44;;;18.82;45.01
11349;BME280;5729;43.570;27.826;2023-04-27T13:26:18;98856.59;;;18.74;44.05
11349;BME280;5729;43.570;27.826;2023-04-27T13:28:44;98854.25;;;19.39;44.02
11349;BME280;5729;43.570;27.826;2023-04-27T13:31:10;98853.63;;;19.71;42.23
11349;BME280;5729;43.570;27.826;2023-04-27T13:33:41;98860.50;;;19.39;41.66
11349;BME280;5729;43.570;27.826;2023-04-27T13:36:08;98870.25;;;19.60;42.65
11349;BME280;5729;43.570;27.826;2023-04-27T13:38:34;98870.75;;;19.75;41.98
11349;BME280;5729;43.570;27.826;2023-04-27T13:40:59;98851.91;;;20.65;40.84
11349;BME280;5729;43.570;27.826;2023-04-27T13:43:25;98856.94;;;20.50;38.74
11349;BME280;5729;43.570;27.826;2023-04-27T13:45:51;98866.19;;;20.20;41.41
11349;BME280;5729;43.570;27.826;2023-04-27T13:48:19;98868.72;;;19.59;41.22
11349;BME280;5729;43.570;27.826;2023-04-27T13:50:44;98867.00;;;18.59;42.94
11349;BME280;5729;43.570;27.826;2023-04-27T13:53:11;98873.81;;;17.60;44.64
11349;BME280;5729;43.570;27.826;2023-04-27T13:55:36;98876.66;;;17.49;45.39
11349;BME280;5729;43.570;27.826;2023-04-27T13:58:02;98873.38;;;16.90;47.44
11349;BME280;5729;43.570;27.826;2023-04-27T14:00:28;98870.41;;;16.74;48.51
11349;BME280;5729;43.570;27.826;2023-04-27T14:02:58;98871.84;;;16.37;48.82
11349;BME280;5729;43.570;27.826;2023-04-27T14:05:23;98888.66;;;16.25;50.25
11349;BME280;5729;43.570;27.826;2023-04-27T14:07:48;98868.56;;;16.05;49.86
11349;BME280;5729;43.570;27.826;2023-04-27T14:10:14;98881.09;;;15.81;50.39
11349;BME280;5729;43.570;27.826;2023-04-27T14:12:39;98880.75;;;15.72;51.46
11349;BME280;5729;43.570;27.826;2023-04-27T14:15:06;98889.75;;;15.58;53.00
11349;BME280;5729;43.570;27.826;2023-04-27T14:17:31;98880.56;;;15.09;55.34
11349;BME280;5729;43.570;27.826;2023-04-27T14:19:57;98883.66;;;15.04;57.29
11349;BME280;5729;43.570;27.826;2023-04-27T14:22:22;98881.72;;;14.94;56.90
11349;BME280;5729;43.570;27.826;2023-04-27T14:24:47;98878.25;;;14.47;58.84
11349;BME280;5729;43.570;27.826;2023-04-27T14:27:14;98888.34;;;14.58;59.76
11349;BME280;5729;43.570;27.826;2023-04-27T14:29:40;98882.53;;;14.41;63.53
11349;BME280;5729;43.570;27.826;2023-04-27T14:32:05;98885.63;;;14.43;65.29
11349;BME280;5729;43.570;27.826;2023-04-27T14:34:31;98887.13;;;14.37;69.94
11349;BME280;5729;43.570;27.826;2023-04-27T14:36:56;98887.91;;;14.31;69.46
11349;BME280;5729;43.570;27.826;2023-04-27T14:39:22;98879.69;;;13.92;74.35
11349;BME280;5729;43.570;27.826;2023-04-27T14:41:47;98894.44;;;14.08;76.89
11349;BME280;5729;43.570;27.826;2023-04-27T14:44:12;98890.59;;;14.34;78.38
11349;BME280;5729;43.570;27.826;2023-04-27T14:46:38;98889.50;;;14.49;83.64
11349;BME280;5729;43.570;27.826;2023-04-27T14:49:03;98897.66;;;14.78;83.13
11349;BME280;5729;43.570;27.826;2023-04-27T14:51:29;98884.44;;;14.98;81.59
11349;BME280;5729;43.570;27.826;2023-04-27T14:53:56;98886.34;;;15.22;75.72
11349;BME280;5729;43.570;27.826;2023-04-27T14:56:22;98887.41;;;15.64;74.22
11349;BME280;5729;43.570;27.826;2023-04-27T14:58:48;98884.25;;;15.79;73.34
11349;BME280;5729;43.570;27.826;2023-04-27T15:01:14;98894.63;;;15.91;79.55
11349;BME280;5729;43.570;27.826;2023-04-27T15:03:39;98898.06;;;16.10;77.49
11349;BME280;5729;43.570;27.826;2023-04-27T15:06:05;98891.44;;;16.11;78.43
11349;BME280;5729;43.570;27.826;2023-04-27T15:08:31;98893.84;;;16.02;78.33
11349;BME280;5729;43.570;27.826;2023-04-27T15:10:56;98888.25;;;16.23;78.07
11349;BME280;5729;43.570;27.826;2023-04-27T15:13:27;98888.56;;;16.36;77.02
11349;BME280;5729;43.570;27.826;2023-04-27T15:15:57;98893.63;;;16.33;75.71
11349;BME280;5729;43.570;27.826;2023-04-27T15:18:23;98896.53;;;16.67;74.25
11349;BME280;5729;43.570;27.826;2023-04-27T15:20:56;98884.47;;;16.61;73.61
11349;BME280;5729;43.570;27.826;2023-04-27T15:23:23;98907.00;;;16.69;73.48
11349;BME280;5729;43.570;27.826;2023-04-27T15:25:52;98901.25;;;16.53;74.81